Los datos mostrados corresponden al resumen diario obtenido de los registros semihorarios entre las 0:00 y las 24:00 h, en horario solar.
| Estación | Fecha | V Km/h | DV | Vx Km/h | T ºC | Tn ºC | Tx ºC | H frío | HR % | Rad MJ/m2 día | H sol | P mm | ETo mm |
|---|---|---|---|---|---|---|---|---|---|---|---|---|---|
| Almoradí | 08/05/2026 | 3.43 | NO | 14.18 | 15.96 | 12.44 | 22.31 | 0 | 84.9 | 15.2 | 9.25 | 1.23 | 2.85 |
| Elx | 08/05/2026 | 3.43 | N | 16.59 | 16.77 | 12.57 | 22.82 | 0 | 77.21 | 18.59 | 10.05 | 0.6 | 3.31 |
| Callosa d'En Sarrià | 07/05/2026 | 2.21 | SE | 11.85 | 16.71 | 12.03 | 22.85 | 0 | 71.82 | 15.59 | 10.73 | 5 | 2.84 |
| Callosa d'En Sarrià (malla) | 07/05/2026 | 2.02 | E | 10.16 | 17.58 | 12.77 | 23.93 | 0 | 57.66 | 11.65 | 10.24 | 4.2 | 2.54 |
| Catral | 08/05/2026 | 1.56 | SO | 11.78 | 15.56 | 10.68 | 22.58 | 0 | 83.5 | 17.4 | 9.79 | 0.58 | 2.91 |
| Altea | 08/05/2026 | 4.18 | NO | 17.36 | 16.75 | 12.55 | 21.95 | 0 | 72.8 | 18.77 | 11.36 | 0.4 | 3.41 |
| Planes | 08/05/2026 | 1.22 | E | 9.45 | 13.21 | 6.85 | 20.87 | 0 | 88 | 14.08 | 11.61 | 0.2 | 2.34 |
| Villena | 08/05/2026 | 4.46 | SO | 17.18 | 13.18 | 6.97 | 20.77 | 0 | 81.4 | 21.3 | 11.97 | 0.21 | 3.53 |
| Camp de Mirra | 08/05/2026 | 4.36 | NE | 18.77 | 12.83 | 6.76 | 20.11 | 0.5 | 82.3 | 19.72 | 11.28 | 1.19 | 3.27 |
| Agost | 08/05/2026 | 2.8 | NO | 13.72 | 14.1 | 9.03 | 20.85 | 0 | 50.52 | 17.88 | 10.62 | 1.18 | 3.36 |
| Orihuela - La Murada | 08/05/2026 | 3.36 | NO | 16.79 | 15.02 | 9.35 | 21.9 | 0 | 75.4 | 17.83 | 10.26 | 0.8 | 3.19 |
| Villajoyosa | 08/05/2026 | 3.03 | O | 13.83 | 16.79 | 12.06 | 23.48 | 0 | 67.37 | 19.05 | 10.98 | 0 | 3.48 |
| Ondara | 08/05/2026 | 2.81 | NO | 14.08 | 15.81 | 10.07 | 20.47 | 0 | 87.5 | 17.09 | 11.18 | 0.2 | 2.82 |
| Dénia | 08/05/2026 | 3.09 | O | 13.02 | 15.14 | 9.24 | 21.04 | 0 | 84.7 | 15.25 | 10.95 | 0.31 | 2.64 |
| Pinoso | 08/05/2026 | 4.36 | NO | 18.7 | 12.67 | 7.27 | 19.5 | 0 | 79.8 | 22.37 | 11.42 | 0.2 | 3.53 |
| Monforte del Cid | 08/05/2026 | 3.15 | E | 16.97 | 14.62 | 8.96 | 21.98 | 0 | 79.7 | 19.79 | 11.03 | 1.38 | 3.33 |
| Crevillent | 08/05/2026 | 2.6 | NE | 16.02 | 16.29 | 11.78 | 22.03 | 0 | 78.3 | 18.08 | 9.95 | 0.78 | 3.17 |
| Vall d'Uixó | 08/05/2026 | 2.77 | N | 9.56 | 15.89 | 10.25 | 21.49 | 0 | 78.2 | 14.69 | 12.13 | 0 | 2.66 |
| Vila-real | 08/05/2026 | 6.07 | N | 16.05 | 16.53 | 11.79 | 21.42 | 0 | 75.59 | 12.48 | 10.89 | 0 | 2.66 |
| Onda | 08/05/2026 | 4.09 | NO | 13.51 | 15.01 | 9.96 | 19.67 | 0 | 80.5 | 10.65 | 11.72 | 0 | 2.17 |
| San Rafael del Río | 08/05/2026 | 3.59 | SO | 16.16 | 14.87 | 9.95 | 19.89 | 0 | 85 | 16.04 | 11.78 | 0 | 2.73 |
| Castelló de la Plana | 08/05/2026 | 2.99 | NO | 10.34 | 15.2 | 9.95 | 21.03 | 0 | 85.9 | 14.1 | 12.2 | 0.2 | 2.49 |
| Ribera de Cabanes | 08/05/2026 | 3.22 | NO | 14.39 | 16.6 | 11.79 | 21.17 | 0 | 64.41 | 18.34 | 11.63 | 0 | 3.22 |
| Nules | 08/05/2026 | 4.63 | NE | 14.22 | 16.08 | 10.87 | 21.37 | 0 | 80.7 | 14.35 | 11.7 | 0 | 2.72 |
| Segorbe | 08/05/2026 | 1.61 | S | 10.37 | 12.42 | 5.66 | 18.96 | 3.5 | 88.1 | 13.68 | 10.78 | 0.2 | 2.22 |
| Pedralba | 08/05/2026 | 2.6 | NE | 13.44 | 14.27 | 8.19 | 20.69 | 0 | 83.6 | 15.02 | 11.29 | 0.2 | 2.6 |
| Benavites | 08/05/2026 | 3.57 | N | 17.32 | 15.41 | 10.41 | 20.28 | 0 | 82.3 | 16.58 | 12.24 | 0 | 2.76 |
| Moncada | 08/05/2026 | 5.11 | N | 21.95 | 15.87 | 9.96 | 21.68 | 0 | 81.5 | 16.17 | 11.36 | 0.1 | 2.96 |
| Carcaixent | 08/05/2026 | 3.08 | N | 20.1 | 16.78 | 11.28 | 23.57 | 0 | 80.9 | 17.16 | 11.53 | 0.1 | 3.07 |
| Carlet | 08/05/2026 | 3.18 | N | 15.36 | 16.06 | 10.49 | 22.15 | 0 | 84.2 | 18.94 | 11.06 | 0.4 | 3.18 |
| Llutxent | 08/05/2026 | 4.77 | N | 21.75 | 14.34 | 9.76 | 19.97 | 0 | 86.7 | 16.61 | 11.73 | 0.2 | 2.8 |
| Requena | 08/05/2026 | 5.86 | N | 22.03 | 12.1 | 5.7 | 19.19 | 5 | 81.9 | 19.76 | 11.11 | 0.1 | 3.27 |
| Algimia de Alfara | 08/05/2026 | 3.01 | E | 18.38 | 14.85 | 8.9 | 21.22 | 0 | 81.6 | 14.94 | 11.18 | 0.2 | 2.65 |
| Valencia - UPV | 08/05/2026 | 4.08 | NE | 18.63 | 16.56 | 12.03 | 19.92 | 0 | 76.28 | 13.28 | 11.09 | 0 | 2.55 |
| Algemesí | 07/05/2026 | 3.34 | N | 16.86 | 14.6 | 10.34 | 19.18 | 0 | 88.4 | 6.89 | 8.31 | 20.6 | 1.68 |
| Picassent | 08/05/2026 | 1.86 | NE | 13.69 | 15.07 | 9.4 | 21.52 | 0 | 86.8 | 14.27 | 11.47 | 0.2 | 2.48 |
| Montesa | 08/05/2026 | 1.85 | NE | 12.28 | 14.98 | 8.85 | 21.29 | 0 | 82.7 | 15.48 | 11.19 | 2.1 | 2.65 |
| Xàtiva | 08/05/2026 | 1.79 | NE | 13.37 | 15.49 | 9.11 | 22.39 | 0 | 83.1 | 15.65 | 11.15 | 1 | 2.7 |
| Llíria | 08/05/2026 | 2.51 | E | 15.03 | 14.02 | 7.8 | 21.31 | 0 | 84.1 | 14.61 | 11.11 | 0.2 | 2.57 |
| Sagunt | 08/05/2026 | 6.49 | N | 17.07 | 16.44 | 12.31 | 21.29 | 0 | 74.7 | 15.32 | 11.2 | 0 | 3.15 |
| Campo Arcís | 08/05/2026 | 4.5 | E | 19.26 | 12.57 | 6.02 | 19.67 | 5 | 84.5 | 18.4 | 11.21 | 0.2 | 3.05 |
| Villalonga | 08/05/2026 | 2.95 | S | 13.23 | 15.69 | 11.8 | 21.14 | 0 | 91.5 | 12.43 | 10.92 | 0.2 | 2.25 |
| Gandía | 08/05/2026 | 1.98 | N | 14.78 | 15.36 | 10.2 | 20.65 | 0 | 86.9 | 12.85 | 10.25 | 0 | 2.29 |
| Bolbaite | 08/05/2026 | 3.42 | NE | 15.21 | 14.83 | 8.5 | 20.67 | 0 | 82.3 | 11.1 | 10.88 | 0 | 2.26 |
| Bétera | 08/05/2026 | 4.42 | NO | 23.64 | 15.04 | 9.42 | 20.26 | 0 | 83.5 | 15.74 | 11.42 | 0 | 2.79 |
| Chulilla | 08/05/2026 | 4.01 | E | 18.91 | 13.63 | 7.91 | 19.65 | 0 | 78.9 | 18.38 | 11.29 | 0 | 3.01 |
| Godelleta | 08/05/2026 | 2.39 | NE | 11.68 | 14.59 | 8.59 | 20.56 | 0 | 85.8 | 12.77 | 10.77 | 0.2 | 2.33 |
| Bèlgida | 08/05/2026 | 3.25 | E | 16.51 | 14.44 | 8.22 | 21.75 | 0 | 87.2 | 16.9 | 11.73 | 0 | 2.86 |
| Polinyà de Xúquer | 08/05/2026 | 2.82 | N | 11.78 | 16.19 | 11.55 | 21.48 | 0 | 85.7 | 15.54 | 11.48 | 0 | 2.68 |
| Benifaió | 08/05/2026 | 1.99 | NE | 15.27 | 15.8 | 10.51 | 21.18 | 0 | 85.2 | 15.98 | 11.62 | 0.2 | 2.71 |
| Cheste | 08/05/2026 | 1.32 | E | 10.02 | 13.8 | 7.14 | 21.09 | 0 | 84.9 | 16.14 | 10.4 | 4.5 | 2.63 |
| Tavernes de la Valldigna | 08/05/2026 | 2.96 | NE | 15.56 | 16.4 | 11.97 | 21.66 | 0 | 86.7 | 16.11 | 11.24 | 0.2 | 2.8 |
| Castelló | 08/05/2026 | 1.75 | SE | 13.37 | 15.98 | 9.56 | 22.37 | 0 | 81.3 | 14.7 | 10.92 | 0.2 | 2.59 |
© Copyright 2011, Instituto Valenciano de Investigaciones Agrarias.
Los datos meteorológicos ofrecidos es esta página son informativos, por lo que carecen de carácter oficial. Los datos son publicados automáticamente y, por lo tanto, pueden no estar sujetos a una completa validación.
|
Cargando ...espere por favor... |